Time;durP1;ratioP1;P1;durP2;ratioP2;P2;SDS_P1;SDS_P2;PMS_P1;PMS_P2;Temp;Humidity;BMP_temperature;BMP_pressure;BME280_temperature;BME280_humidity;BME280_pressure;Samples;Min_cycle;Max_cycle;Signal;HPM_P1;HPM_P2
2023/03/17 00:04:48;;;;;;;;;;;7.20;99.90;;;;;;4949689;29;19927;-91
2023/03/17 00:07:32;;;;;;;;;;;6.20;99.90;;;;;;4957574;29;20263;-92
2023/03/17 00:10:27;;;;;;;;;;;7.30;99.90;;;;;;4940494;29;19923;-92
2023/03/17 00:13:13;;;;;;;;;;;7.10;99.90;;;;;;4942098;29;19998;-91
2023/03/17 00:15:49;;;;;;;;;;;7.00;99.90;;;;;;4942610;29;19965;-92
2023/03/17 00:18:23;;;;;;;;;;;7.30;99.90;;;;;;4957418;29;20279;-91
2023/03/17 00:21:14;;;;;;;;;;;7.40;99.90;;;;;;4940493;29;19929;-91
2023/03/17 00:23:53;;;;;;;;;;;6.80;99.90;;;;;;4941349;29;19922;-90
2023/03/17 00:26:45;;;;;;;;;;;7.10;99.90;;;;;;4973587;28;20370;-91
2023/03/17 00:29:16;;;;;;;;;;;7.20;99.90;;;;;;4956180;29;20343;-91
2023/03/17 00:31:49;;;;;;;;;;;7.20;99.90;;;;;;4940834;29;20417;-91
2023/03/17 00:34:44;;;;;;;;;;;7.10;99.90;;;;;;4940289;29;19923;-92
2023/03/17 00:37:21;;;;;;;;;;;7.00;99.90;;;;;;4940988;29;19962;-92
2023/03/17 00:39:49;;;;;;;;;;;7.60;99.90;;;;;;4976949;28;19914;-91
2023/03/17 00:45:19;;;;;;;;;;;6.00;99.90;;;;;;4972637;28;19924;-91
2023/03/17 00:48:02;;;;;;;;;;;7.60;99.90;;;;;;4963695;28;19914;-91
2023/03/17 00:53:39;;;;;;;;;;;6.70;99.90;;;;;;4969648;28;19923;-92
2023/03/17 00:56:12;;;;;;;;;;;5.30;99.90;;;;;;4963823;28;19915;-91
2023/03/17 00:58:42;;;;;;;;;;;7.00;99.90;;;;;;4963189;28;19969;-91
2023/03/17 01:01:38;;;;;;;;;;;;;;;;;;;;;
2023/03/17 01:04:27;;;;;;;;;;;;;;;;;;;;;
2023/03/17 01:07:01;;;;;;;;;;;9.40;99.90;;;;;;4956524;29;20013;-93
2023/03/17 01:09:30;;;;;;;;;;;7.10;99.90;;;;;;4946703;29;19933;-91
2023/03/17 01:12:19;;;;;;;;;;;7.00;99.90;;;;;;4950483;29;19949;-91
2023/03/17 01:14:52;;;;;;;;;;;7.30;99.90;;;;;;4957772;29;19923;-91
2023/03/17 01:17:18;;;;;;;;;;;7.30;99.90;;;;;;4956872;29;19923;-91
2023/03/17 01:20:15;;;;;;;;;;;7.10;99.90;;;;;;4940024;29;19926;-92
2023/03/17 01:23:03;;;;;;;;;;;7.10;99.90;;;;;;4939530;29;20362;-91
2023/03/17 01:25:32;;;;;;;;;;;6.40;99.90;;;;;;4949714;29;19930;-90
2023/03/17 01:28:04;;;;;;;;;;;7.20;99.90;;;;;;4955098;28;19969;-92
2023/03/17 01:30:58;;;;;;;;;;;5.50;99.90;;;;;;4939720;29;19992;-91
2023/03/17 01:36:33;;;;;;;;;;;7.50;99.90;;;;;;4918846;29;19930;-90
2023/03/17 01:39:14;;;;;;;;;;;7.00;99.90;;;;;;4955043;29;19922;-91
2023/03/17 01:41:56;;;;;;;;;;;7.00;99.90;;;;;;4955654;29;20414;-91
2023/03/17 01:45:04;;;;;;;;;;;7.00;99.90;;;;;;4954862;29;19945;-91
2023/03/17 01:47:59;;;;;;;;;;;9.70;99.90;;;;;;4939285;29;19932;-91
2023/03/17 01:50:28;;;;;;;;;;;8.00;99.90;;;;;;4954838;29;20274;-91
2023/03/17 01:53:02;;;;;;;;;;;7.10;99.90;;;;;;4955225;29;19974;-91
2023/03/17 01:55:44;;;;;;;;;;;7.00;99.90;;;;;;4939692;29;19969;-92
2023/03/17 01:58:16;;;;;;;;;;;7.10;99.90;;;;;;4955311;28;20043;-91
2023/03/17 02:07:36;;;;;;;;;;;7.20;99.90;;;;;;4955598;29;19917;-91
2023/03/17 02:13:28;;;;;;;;;;;6.30;99.90;;;;;;4977391;28;20013;-90
2023/03/17 02:16:01;;;;;;;;;;;7.20;99.90;;;;;;4945054;29;19922;-91
2023/03/17 02:21:40;;;;;;;;;;;7.30;99.90;;;;;;4947348;29;19922;-91
2023/03/17 02:24:36;;;;;;;;;;;7.30;99.90;;;;;;4945275;28;19969;-90
2023/03/17 02:27:38;;;;;;;;;;;;;;;;;;;;;
2023/03/17 02:33:24;;;;;;;;;;;8.50;99.90;;;;;;4984258;28;19922;-90
2023/03/17 02:36:10;;;;;;;;;;;8.20;99.90;;;;;;4962327;29;19973;-90
2023/03/17 02:38:46;;;;;;;;;;;5.10;99.90;;;;;;4960288;28;19973;-92
2023/03/17 02:41:17;;;;;;;;;;;5.60;99.90;;;;;;4962669;29;20413;-91
2023/03/17 02:43:53;;;;;;;;;;;;;;;;;;;;;
2023/03/17 02:47:07;;;;;;;;;;;5.40;99.90;;;;;;4976780;28;19922;-91
2023/03/17 02:49:38;;;;;;;;;;;6.20;99.90;;;;;;4961412;29;20270;-91
2023/03/17 02:52:22;;;;;;;;;;;7.00;99.90;;;;;;4945832;28;20385;-92
2023/03/17 02:54:52;;;;;;;;;;;5.00;99.90;;;;;;4961722;29;19930;-92
2023/03/17 02:57:21;;;;;;;;;;;5.10;99.90;;;;;;4944981;29;19937;-92
2023/03/17 02:59:52;;;;;;;;;;;8.70;99.90;;;;;;4944736;29;19922;-92
2023/03/17 03:02:17;;;;;;;;;;;6.90;99.90;;;;;;4944810;29;19923;-91
2023/03/17 03:05:12;;;;;;;;;;;6.20;99.90;;;;;;4960750;29;19969;-91
2023/03/17 03:07:44;;;;;;;;;;;6.80;99.90;;;;;;4960483;28;19927;-91
2023/03/17 03:10:23;;;;;;;;;;;;;;;;;;;;;
2023/03/17 03:12:51;;;;;;;;;;;7.10;99.90;;;;;;4960613;29;19929;-91
2023/03/17 03:15:33;;;;;;;;;;;7.10;99.90;;;;;;4945334;29;19929;-90
2023/03/17 03:21:02;;;;;;;;;;;6.70;99.90;;;;;;4952257;29;20018;-92
2023/03/17 03:23:42;;;;;;;;;;;6.60;99.90;;;;;;4957714;28;20016;-90
2023/03/17 03:26:20;;;;;;;;;;;7.20;99.90;;;;;;4957817;29;19993;-91
2023/03/17 03:28:59;;;;;;;;;;;6.90;99.90;;;;;;4957436;29;20351;-90
2023/03/17 03:31:30;;;;;;;;;;;6.80;99.90;;;;;;4942323;29;20212;-91
2023/03/17 03:34:26;;;;;;;;;;;;;;;;;;;;;
2023/03/17 03:37:14;;;;;;;;;;;6.70;99.90;;;;;;4950886;29;19922;-91
2023/03/17 03:39:54;;;;;;;;;;;6.90;99.90;;;;;;4958070;29;19922;-91
2023/03/17 03:42:31;;;;;;;;;;;7.20;99.90;;;;;;4942453;29;20266;-91
2023/03/17 03:45:02;;;;;;;;;;;6.80;99.90;;;;;;4956947;29;20348;-91
2023/03/17 03:47:33;;;;;;;;;;;6.60;99.90;;;;;;4956899;29;20335;-91
2023/03/17 03:50:15;;;;;;;;;;;8.90;99.90;;;;;;4972926;28;19930;-90
2023/03/17 03:56:03;;;;;;;;;;;6.70;99.90;;;;;;4946626;29;20351;-91
2023/03/17 03:59:08;;;;;;;;;;;;;;;;;;;;;
2023/03/17 04:01:44;;;;;;;;;;;6.70;99.90;;;;;;4954582;29;20015;-91
2023/03/17 04:04:12;;;;;;;;;;;6.70;99.90;;;;;;4941257;29;19929;-91
2023/03/17 04:06:54;;;;;;;;;;;;;;;;;;;;;
2023/03/17 04:09:25;;;;;;;;;;;6.80;99.90;;;;;;4972893;28;20357;-92
2023/03/17 04:15:11;;;;;;;;;;;;;;;;;;;;;
2023/03/17 04:17:57;;;;;;;;;;;6.70;99.90;;;;;;4957389;29;19972;-91
2023/03/17 04:20:38;;;;;;;;;;;;;;;;;;;;;
2023/03/17 04:23:46;;;;;;;;;;;6.60;99.90;;;;;;4956344;29;19922;-91
2023/03/17 04:26:29;;;;;;;;;;;;;;;;;;;;;
2023/03/17 04:29:25;;;;;;;;;;;6.70;99.90;;;;;;4956559;29;20262;-91
2023/03/17 04:31:59;;;;;;;;;;;7.00;99.90;;;;;;4956557;29;19926;-90
2023/03/17 04:34:32;;;;;;;;;;;4.60;99.90;;;;;;4939855;29;20305;-90
2023/03/17 04:37:08;;;;;;;;;;;5.10;99.90;;;;;;4939871;29;19923;-92
2023/03/17 04:39:49;;;;;;;;;;;;;;;;;;;;;
2023/03/17 04:42:27;;;;;;;;;;;;;;;;;;;;;
2023/03/17 04:45:15;;;;;;;;;;;6.40;99.90;;;;;;4956435;29;19923;-90
2023/03/17 04:47:48;;;;;;;;;;;6.70;99.90;;;;;;4959202;29;19930;-91
2023/03/17 04:50:31;;;;;;;;;;;;;;;;;;;;;
2023/03/17 04:53:02;;;;;;;;;;;6.40;99.90;;;;;;4956498;29;19922;-91
2023/03/17 04:55:30;;;;;;;;;;;7.00;99.90;;;;;;4939877;29;19978;-91
2023/03/17 04:58:14;;;;;;;;;;;6.30;99.90;;;;;;4956356;29;20360;-92
2023/03/17 05:00:55;;;;;;;;;;;4.70;99.90;;;;;;4956167;29;19926;-91
2023/03/17 05:03:29;;;;;;;;;;;4.70;99.90;;;;;;4940026;29;19922;-90
2023/03/17 05:06:05;;;;;;;;;;;6.40;99.90;;;;;;4940574;29;19929;-91
2023/03/17 05:08:36;;;;;;;;;;;6.40;99.90;;;;;;4970115;28;19914;-92
2023/03/17 05:11:10;;;;;;;;;;;6.40;99.90;;;;;;4978436;28;19917;-92
2023/03/17 05:16:52;;;;;;;;;;;6.10;99.90;;;;;;4979398;28;19973;-92
2023/03/17 05:19:34;;;;;;;;;;;;;;;;;;;;;
2023/03/17 05:22:04;;;;;;;;;;;6.50;99.90;;;;;;4995044;28;19921;-92
2023/03/17 05:24:42;;;;;;;;;;;;;;;;;;;;;
2023/03/17 05:27:21;;;;;;;;;;;6.50;99.90;;;;;;4979186;28;19987;-92
2023/03/17 05:30:16;;;;;;;;;;;6.10;99.90;;;;;;4962903;28;19910;-91
2023/03/17 05:32:59;;;;;;;;;;;7.70;99.90;;;;;;4958665;28;19923;-90
2023/03/17 05:35:33;;;;;;;;;;;6.50;99.90;;;;;;4940762;29;19966;-91
2023/03/17 05:38:20;;;;;;;;;;;6.20;99.90;;;;;;4972024;28;19961;-90
2023/03/17 05:41:12;;;;;;;;;;;6.50;99.90;;;;;;4956719;29;19922;-90
2023/03/17 05:44:19;;;;;;;;;;;6.80;99.90;;;;;;4940803;29;19922;-90
2023/03/17 05:46:50;;;;;;;;;;;5.10;99.90;;;;;;4942500;29;19931;-91
2023/03/17 05:49:43;;;;;;;;;;;6.90;99.90;;;;;;4955703;29;19985;-91
2023/03/17 05:52:30;;;;;;;;;;;;;;;;;;;;;
2023/03/17 05:54:59;;;;;;;;;;;7.50;99.90;;;;;;4956000;29;20259;-90
2023/03/17 05:57:45;;;;;;;;;;;4.70;99.90;;;;;;4939738;29;19984;-91
2023/03/17 06:00:17;;;;;;;;;;;6.50;99.90;;;;;;4946248;29;19922;-91
2023/03/17 06:02:45;;;;;;;;;;;5.50;99.90;;;;;;4955380;28;19926;-90
2023/03/17 06:05:21;;;;;;;;;;;5.50;99.90;;;;;;4939644;29;19965;-90
2023/03/17 06:08:03;;;;;;;;;;;6.40;99.90;;;;;;4940259;29;19934;-91
2023/03/17 06:13:46;;;;;;;;;;;7.20;99.90;;;;;;4971160;28;19931;-91
2023/03/17 06:16:34;;;;;;;;;;;;;;;;;;;;;
2023/03/17 06:19:23;;;;;;;;;;;7.00;99.90;;;;;;4955659;29;19926;-90
2023/03/17 06:25:14;;;;;;;;;;;7.00;99.90;;;;;;4943502;29;19985;-91
2023/03/17 06:27:53;;;;;;;;;;;6.70;99.90;;;;;;4944120;29;19922;-91
2023/03/17 06:30:41;;;;;;;;;;;6.80;99.90;;;;;;4958238;29;19929;-91
2023/03/17 06:33:23;;;;;;;;;;;6.80;99.90;;;;;;4955510;29;19929;-90
2023/03/17 06:36:07;;;;;;;;;;;;;;;;;;;;;
2023/03/17 06:38:39;;;;;;;;;;;7.40;99.90;;;;;;4971428;28;19930;-92
2023/03/17 06:41:48;;;;;;;;;;;7.20;99.90;;;;;;4939224;29;19923;-93
2023/03/17 06:50:51;;;;;;;;;;;4.80;99.90;;;;;;4952839;29;20006;-87
2023/03/17 06:53:17;;;;;;;;;;;8.20;99.90;;;;;;4937661;29;20017;-87
2023/03/17 06:55:43;;;;;;;;;;;5.90;99.90;;;;;;4937766;29;20316;-88
2023/03/17 06:58:09;;;;;;;;;;;7.00;99.90;;;;;;4938658;29;19929;-88
2023/03/17 07:00:50;;;;;;;;;;;;;;;;;;;;;
2023/03/17 07:03:34;;;;;;;;;;;;;;;;;;;;;
2023/03/17 07:06:05;;;;;;;;;;;7.20;99.90;;;;;;4940380;29;19929;-88
2023/03/17 07:08:33;;;;;;;;;;;6.10;99.90;;;;;;4940215;29;19923;-89
2023/03/17 07:11:02;;;;;;;;;;;7.20;99.90;;;;;;4945503;29;20374;-87
2023/03/17 07:13:28;;;;;;;;;;;6.20;99.90;;;;;;4941238;29;19923;-89
2023/03/17 07:16:08;;;;;;;;;;;7.20;99.90;;;;;;4942484;29;19927;-90
2023/03/17 07:18:49;;;;;;;;;;;7.50;99.90;;;;;;4956521;29;19927;-89
2023/03/17 07:21:17;;;;;;;;;;;7.50;99.90;;;;;;4941439;29;20294;-90
2023/03/17 07:23:55;;;;;;;;;;;7.40;99.90;;;;;;4957480;28;19928;-90
2023/03/17 07:26:35;;;;;;;;;;;7.50;99.90;;;;;;4957146;29;19923;-91
2023/03/17 07:29:09;;;;;;;;;;;7.50;99.90;;;;;;4957877;29;20244;-90
2023/03/17 07:31:47;;;;;;;;;;;;;;;;;;;;;
2023/03/17 07:34:24;;;;;;;;;;;7.70;99.90;;;;;;4957305;29;19933;-91
2023/03/17 07:37:11;;;;;;;;;;;5.90;99.90;;;;;;4971692;28;20073;-89
2023/03/17 07:39:50;;;;;;;;;;;7.80;99.90;;;;;;4940734;29;19969;-90
2023/03/17 07:42:35;;;;;;;;;;;6.60;99.90;;;;;;4956617;29;19926;-89
2023/03/17 07:45:31;;;;;;;;;;;8.00;99.90;;;;;;4971005;28;19934;-92
2023/03/17 07:54:33;;;;;;;;;;;8.60;99.90;;;;;;4938474;29;19930;-90
2023/03/17 07:57:04;;;;;;;;;;;8.60;99.90;;;;;;4940438;29;19933;-91
2023/03/17 08:02:51;;;;;;;;;;;9.30;99.90;;;;;;4949242;29;19978;-93
2023/03/17 08:05:47;;;;;;;;;;;10.00;99.90;;;;;;4957331;29;19927;-91
2023/03/17 08:08:30;;;;;;;;;;;8.70;99.90;;;;;;4948977;28;19927;-91
2023/03/17 08:11:07;;;;;;;;;;;8.70;99.90;;;;;;4939820;29;19933;-91
2023/03/17 08:16:55;;;;;;;;;;;9.40;99.90;;;;;;4947392;29;19933;-90
2023/03/17 08:19:28;;;;;;;;;;;7.80;99.90;;;;;;4957153;29;19978;-89
2023/03/17 08:22:01;;;;;;;;;;;9.40;99.90;;;;;;4956787;29;19926;-91
2023/03/17 08:24:45;;;;;;;;;;;;;;;;;;;;;
2023/03/17 08:27:37;;;;;;;;;;;9.10;99.90;;;;;;4957099;29;19974;-90
2023/03/17 08:30:06;;;;;;;;;;;9.40;99.90;;;;;;4971851;28;20386;-89
2023/03/17 08:32:40;;;;;;;;;;;9.30;99.90;;;;;;4955901;29;20252;-90
2023/03/17 08:35:29;;;;;;;;;;;9.70;99.90;;;;;;4956010;28;19937;-91
2023/03/17 08:38:08;;;;;;;;;;;9.20;99.90;;;;;;4946741;29;20363;-89
2023/03/17 08:40:39;;;;;;;;;;;9.90;99.90;;;;;;4965622;28;20425;-90
2023/03/17 08:46:20;;;;;;;;;;;9.40;99.90;;;;;;4971138;28;19926;-91
2023/03/17 08:49:03;;;;;;;;;;;9.40;99.90;;;;;;4965264;28;19927;-91
2023/03/17 08:54:24;;;;;;;;;;;9.30;99.90;;;;;;4946588;29;19926;-91
2023/03/17 08:57:05;;;;;;;;;;;;;;;;;;;;;
2023/03/17 09:00:21;;;;;;;;;;;7.80;99.90;;;;;;4956584;28;19931;-90
2023/03/17 09:03:21;;;;;;;;;;;;;;;;;;;;;
2023/03/17 09:05:58;;;;;;;;;;;11.30;99.90;;;;;;4951220;29;20371;-90
2023/03/17 09:08:43;;;;;;;;;;;10.20;99.90;;;;;;4939284;29;20033;-91
2023/03/17 09:11:27;;;;;;;;;;;10.20;99.90;;;;;;4969658;28;20342;-90
2023/03/17 09:13:58;;;;;;;;;;;10.30;99.90;;;;;;4939801;29;19949;-88
2023/03/17 09:19:41;;;;;;;;;;;;;;;;;;;;;
2023/03/17 09:22:53;;;;;;;;;;;;;;;;;;;;;
2023/03/17 09:26:00;;;;;;;;;;;;;;;;;;;;;
2023/03/17 09:28:53;;;;;;;;;;;10.70;99.90;;;;;;4955352;29;20017;-89
2023/03/17 09:31:37;;;;;;;;;;;;;;;;;;;;;
2023/03/17 09:34:38;;;;;;;;;;;10.80;99.90;;;;;;4955293;29;19930;-91
2023/03/17 09:40:50;;;;;;;;;;;11.60;99.90;;;;;;4915367;29;19970;-88
2023/03/17 09:44:00;;;;;;;;;;;9.60;99.90;;;;;;4884187;29;20043;-88
2023/03/17 09:46:44;;;;;;;;;;;11.10;99.90;;;;;;4898813;29;19927;-89
2023/03/17 09:49:21;;;;;;;;;;;11.30;99.90;;;;;;4900471;29;19927;-91
2023/03/17 09:52:10;;;;;;;;;;;11.20;99.90;;;;;;4899402;29;20035;-90
2023/03/17 09:54:55;;;;;;;;;;;;;;;;;;;;;
2023/03/17 09:58:09;;;;;;;;;;;;;;;;;;;;;
2023/03/17 10:00:43;;;;;;;;;;;9.20;99.90;;;;;;4951483;29;19968;-89
2023/03/17 10:03:26;;;;;;;;;;;13.00;99.90;;;;;;4954260;29;19973;-90
2023/03/17 10:06:17;;;;;;;;;;;11.80;99.90;;;;;;4938905;29;19933;-89
2023/03/17 10:09:06;;;;;;;;;;;11.70;99.90;;;;;;4938410;29;19985;-88
2023/03/17 10:11:56;;;;;;;;;;;11.30;99.90;;;;;;4954517;29;19930;-90
2023/03/17 10:14:53;;;;;;;;;;;11.30;99.90;;;;;;4927208;29;20013;-87
2023/03/17 10:17:20;;;;;;;;;;;12.30;99.90;;;;;;4970350;28;20065;-88
2023/03/17 10:20:15;;;;;;;;;;;12.30;99.90;;;;;;4937344;29;20390;-88
2023/03/17 10:22:59;;;;;;;;;;;12.70;99.90;;;;;;4942576;29;19978;-88
2023/03/17 10:25:40;;;;;;;;;;;;;;;;;;;;;
2023/03/17 10:28:24;;;;;;;;;;;;;;;;;;;;;
2023/03/17 10:30:55;;;;;;;;;;;12.90;99.90;;;;;;4970554;28;19927;-91
2023/03/17 10:33:29;;;;;;;;;;;12.90;99.90;;;;;;4958207;28;20271;-90
2023/03/17 10:39:09;;;;;;;;;;;13.40;99.90;;;;;;4944272;29;20411;-91
2023/03/17 10:41:57;;;;;;;;;;;11.80;99.90;;;;;;4959133;29;20013;-90
2023/03/17 10:44:39;;;;;;;;;;;13.70;99.90;;;;;;4944652;29;19927;-90
2023/03/17 10:47:07;;;;;;;;;;;13.70;99.90;;;;;;4942418;29;19973;-88
2023/03/17 10:49:38;;;;;;;;;;;13.60;99.90;;;;;;4941092;29;19934;-89
2023/03/17 10:55:04;;;;;;;;;;;13.90;99.90;;;;;;5063242;28;19964;-92
2023/03/17 10:57:30;;;;;;;;;;;13.80;99.90;;;;;;5047797;28;19963;-91
2023/03/17 10:59:58;;;;;;;;;;;13.90;99.90;;;;;;5030666;28;19920;-92
2023/03/17 11:02:26;;;;;;;;;;;14.00;99.90;;;;;;5026975;28;19932;-93
2023/03/17 11:05:18;;;;;;;;;;;14.10;99.90;;;;;;5022223;28;19925;-89
2023/03/17 11:07:44;;;;;;;;;;;14.20;99.90;;;;;;5025438;28;19924;-91
2023/03/17 11:10:20;;;;;;;;;;;14.30;99.90;;;;;;5014168;28;19925;-90
2023/03/17 11:12:49;;;;;;;;;;;14.30;99.90;;;;;;5029871;28;19925;-91
2023/03/17 11:15:16;;;;;;;;;;;14.30;99.90;;;;;;5025153;28;19926;-91
2023/03/17 11:17:58;;;;;;;;;;;14.30;99.90;;;;;;5039635;28;19951;-92
2023/03/17 11:20:30;;;;;;;;;;;14.20;99.90;;;;;;5047501;28;19931;-92
2023/03/17 11:22:58;;;;;;;;;;;14.10;99.90;;;;;;5032184;28;19925;-92
2023/03/17 11:25:26;;;;;;;;;;;14.30;99.90;;;;;;5031537;28;19940;-91
2023/03/17 11:27:57;;;;;;;;;;;14.40;99.90;;;;;;5014332;28;19929;-94
2023/03/17 11:30:34;;;;;;;;;;;14.50;99.90;;;;;;5046624;28;19925;-93
2023/03/17 11:33:12;;;;;;;;;;;14.60;99.90;;;;;;5050584;28;19948;-89
2023/03/17 11:35:48;;;;;;;;;;;14.80;99.90;;;;;;5042634;28;19929;-92
2023/03/17 11:38:28;;;;;;;;;;;14.90;99.90;;;;;;5046173;28;20330;-91
2023/03/17 11:41:03;;;;;;;;;;;14.90;99.90;;;;;;5043470;28;19955;-91
2023/03/17 11:43:34;;;;;;;;;;;15.10;99.90;;;;;;5027212;28;19933;-92
2023/03/17 11:46:04;;;;;;;;;;;15.10;99.90;;;;;;5025383;28;20491;-91
2023/03/17 11:48:54;;;;;;;;;;;15.20;99.90;;;;;;5024292;28;19926;-91
2023/03/17 11:51:32;;;;;;;;;;;15.20;99.90;;;;;;5046517;28;19929;-91
2023/03/17 11:53:57;;;;;;;;;;;15.40;99.90;;;;;;5028505;28;19976;-93
2023/03/17 11:56:37;;;;;;;;;;;15.40;99.90;;;;;;5030288;28;20805;-91
2023/03/17 11:59:04;;;;;;;;;;;15.40;99.90;;;;;;5045229;28;19925;-91
2023/03/17 12:01:53;;;;;;;;;;;15.50;99.90;;;;;;5024599;28;20438;-91
2023/03/17 12:04:19;;;;;;;;;;;15.50;99.90;;;;;;5025476;28;19925;-91
2023/03/17 12:06:58;;;;;;;;;;;15.60;99.90;;;;;;5025904;28;19931;-92
2023/03/17 12:09:23;;;;;;;;;;;15.60;99.90;;;;;;5054312;28;19984;-91
2023/03/17 12:11:49;;;;;;;;;;;15.60;99.90;;;;;;5019832;28;20039;-93
2023/03/17 12:14:21;;;;;;;;;;;15.70;99.90;;;;;;5045477;28;19932;-92
2023/03/17 12:16:49;;;;;;;;;;;15.60;99.90;;;;;;5030181;28;19951;-90
2023/03/17 12:19:23;;;;;;;;;;;15.70;99.90;;;;;;5028460;28;19925;-93
2023/03/17 12:21:49;;;;;;;;;;;15.60;99.90;;;;;;5028498;28;19939;-94
2023/03/17 12:24:18;;;;;;;;;;;15.60;99.90;;;;;;5027814;28;19925;-92
2023/03/17 12:26:59;;;;;;;;;;;15.60;99.90;;;;;;5044721;28;19980;-91
2023/03/17 12:29:48;;;;;;;;;;;15.50;99.90;;;;;;5028187;28;20007;-94
2023/03/17 12:32:14;;;;;;;;;;;15.40;99.90;;;;;;5030195;28;19989;-92
2023/03/17 12:34:44;;;;;;;;;;;15.40;99.90;;;;;;5040433;28;19920;-89
2023/03/17 12:37:10;;;;;;;;;;;15.30;99.90;;;;;;5041973;28;19932;-90
2023/03/17 12:39:36;;;;;;;;;;;15.40;99.90;;;;;;5025471;28;19932;-91
2023/03/17 12:42:17;;;;;;;;;;;15.40;99.90;;;;;;5046405;28;19925;-92
2023/03/17 12:44:49;;;;;;;;;;;15.50;99.90;;;;;;5030517;28;19925;-91
2023/03/17 12:47:38;;;;;;;;;;;15.40;99.90;;;;;;5035637;28;19940;-92
2023/03/17 12:50:04;;;;;;;;;;;15.30;99.90;;;;;;5034489;28;19925;-92
2023/03/17 12:52:33;;;;;;;;;;;15.40;99.90;;;;;;5027165;28;19960;-92
2023/03/17 12:55:01;;;;;;;;;;;15.40;99.90;;;;;;5032868;28;19925;-91
2023/03/17 12:57:28;;;;;;;;;;;15.50;99.90;;;;;;5028426;28;19925;-93
2023/03/17 13:00:04;;;;;;;;;;;15.60;99.90;;;;;;5020827;28;19931;-92
2023/03/17 13:02:33;;;;;;;;;;;15.70;99.90;;;;;;5034592;28;19947;-92
2023/03/17 13:04:59;;;;;;;;;;;15.70;99.90;;;;;;5038429;28;20036;-93
2023/03/17 13:07:30;;;;;;;;;;;15.60;99.90;;;;;;5028626;28;19951;-91
2023/03/17 13:09:55;;;;;;;;;;;15.60;99.90;;;;;;5026861;28;19959;-92
2023/03/17 13:12:40;;;;;;;;;;;15.60;99.90;;;;;;5024975;28;19925;-91
2023/03/17 13:15:21;;;;;;;;;;;15.70;99.90;;;;;;5020438;28;20362;-93
2023/03/17 13:17:47;;;;;;;;;;;15.60;99.90;;;;;;5021339;28;19929;-95
2023/03/17 13:20:14;;;;;;;;;;;15.60;99.90;;;;;;5043996;28;19925;-92
2023/03/17 13:22:59;;;;;;;;;;;15.50;99.90;;;;;;5027432;28;19936;-95
2023/03/17 13:25:37;;;;;;;;;;;15.50;99.90;;;;;;5029641;28;19929;-92
2023/03/17 13:28:12;;;;;;;;;;;15.10;99.90;;;;;;5035403;28;19925;-92
2023/03/17 13:30:38;;;;;;;;;;;15.20;99.90;;;;;;5038737;28;19929;-93
2023/03/17 13:33:09;;;;;;;;;;;15.10;99.90;;;;;;5025269;28;19925;-91
2023/03/17 13:35:55;;;;;;;;;;;15.00;99.90;;;;;;5040403;28;19944;-92
2023/03/17 13:38:21;;;;;;;;;;;14.90;99.90;;;;;;5027805;28;20337;-93
2023/03/17 13:41:10;;;;;;;;;;;14.90;99.90;;;;;;5028385;28;19929;-90
2023/03/17 13:43:54;;;;;;;;;;;14.90;99.90;;;;;;5014704;28;19928;-92
2023/03/17 13:46:21;;;;;;;;;;;14.90;99.90;;;;;;5039287;28;19947;-91
2023/03/17 13:48:47;;;;;;;;;;;15.00;99.90;;;;;;5026599;28;19924;-93
2023/03/17 13:51:19;;;;;;;;;;;15.00;99.90;;;;;;5011080;28;19924;-93
2023/03/17 13:54:17;;;;;;;;;;;15.10;99.90;;;;;;5039539;28;19987;-91
2023/03/17 13:56:44;;;;;;;;;;;15.20;99.90;;;;;;4998297;28;19964;-92
2023/03/17 13:59:13;;;;;;;;;;;15.30;99.90;;;;;;5050935;28;19931;-92
2023/03/17 14:01:48;;;;;;;;;;;15.40;99.90;;;;;;5033998;28;19925;-91
2023/03/17 14:04:22;;;;;;;;;;;15.50;99.90;;;;;;5044581;28;19925;-94
2023/03/17 14:06:50;;;;;;;;;;;15.50;99.90;;;;;;5043312;28;19932;-94
2023/03/17 14:09:31;;;;;;;;;;;15.60;99.90;;;;;;5032436;28;19933;-91
2023/03/17 14:11:58;;;;;;;;;;;15.80;99.90;;;;;;5025897;28;19955;-92
2023/03/17 14:14:42;;;;;;;;;;;15.80;99.90;;;;;;5024744;28;20490;-93
2023/03/17 14:17:13;;;;;;;;;;;16.00;99.90;;;;;;5041078;28;19928;-94
2023/03/17 14:19:41;;;;;;;;;;;16.00;99.90;;;;;;5044168;28;19979;-92
2023/03/17 14:22:18;;;;;;;;;;;16.00;99.90;;;;;;5010528;28;19925;-93
2023/03/17 14:24:43;;;;;;;;;;;16.00;99.90;;;;;;5046115;28;19925;-93
2023/03/17 14:27:11;;;;;;;;;;;15.90;99.90;;;;;;5007947;28;19925;-94
2023/03/17 14:29:36;;;;;;;;;;;15.90;99.90;;;;;;5029180;28;19981;-93
2023/03/17 14:32:13;;;;;;;;;;;15.90;99.90;;;;;;5020238;28;19925;-96
2023/03/17 14:34:47;;;;;;;;;;;15.90;99.90;;;;;;5022529;28;19925;-93
2023/03/17 14:37:13;;;;;;;;;;;15.80;99.90;;;;;;5025172;28;20411;-92
2023/03/17 14:39:43;;;;;;;;;;;15.80;99.90;;;;;;5032106;28;19924;-92
2023/03/17 14:42:10;;;;;;;;;;;15.70;99.90;;;;;;5047960;28;19986;-94
2023/03/17 14:44:40;;;;;;;;;;;15.70;99.90;;;;;;5032818;28;19925;-90
2023/03/17 14:47:16;;;;;;;;;;;15.60;99.90;;;;;;5026686;28;20300;-91
2023/03/17 14:49:41;;;;;;;;;;;15.60;99.90;;;;;;5032209;28;19933;-93
2023/03/17 14:52:22;;;;;;;;;;;15.50;99.90;;;;;;5025669;28;19936;-93
2023/03/17 14:54:52;;;;;;;;;;;15.50;99.90;;;;;;5039847;28;19933;-92
2023/03/17 14:57:20;;;;;;;;;;;15.40;99.90;;;;;;5031935;28;20410;-90
2023/03/17 14:59:57;;;;;;;;;;;15.40;99.90;;;;;;5025810;28;19929;-94
2023/03/17 15:02:26;;;;;;;;;;;15.40;99.90;;;;;;5022526;28;19982;-92
2023/03/17 15:04:56;;;;;;;;;;;15.40;99.90;;;;;;5016944;28;19952;-91
2023/03/17 15:07:34;;;;;;;;;;;15.40;99.90;;;;;;5027091;28;20003;-94
2023/03/17 15:10:01;;;;;;;;;;;15.30;99.90;;;;;;5037310;28;19925;-92
2023/03/17 15:12:27;;;;;;;;;;;15.30;99.90;;;;;;5039974;28;20744;-93
2023/03/17 15:14:53;;;;;;;;;;;15.30;99.90;;;;;;5037493;28;19925;-93
2023/03/17 15:17:26;;;;;;;;;;;15.30;99.90;;;;;;5028014;28;19932;-94
2023/03/17 15:19:58;;;;;;;;;;;15.30;99.90;;;;;;5029011;28;19925;-93
2023/03/17 15:22:25;;;;;;;;;;;15.20;99.90;;;;;;5040076;28;19925;-92
2023/03/17 15:24:57;;;;;;;;;;;15.20;99.90;;;;;;5026498;28;19968;-94
2023/03/17 15:27:23;;;;;;;;;;;15.30;99.90;;;;;;5017517;28;20084;-93
2023/03/17 15:29:48;;;;;;;;;;;15.30;99.90;;;;;;5010939;28;19929;-91
2023/03/17 15:32:15;;;;;;;;;;;15.30;99.90;;;;;;5003988;28;19992;-94
2023/03/17 15:34:41;;;;;;;;;;;15.30;99.90;;;;;;5037372;28;19936;-94
2023/03/17 15:37:19;;;;;;;;;;;15.30;99.90;;;;;;5006263;28;19926;-92
2023/03/17 15:39:45;;;;;;;;;;;15.30;99.90;;;;;;5017117;28;19925;-93
2023/03/17 15:42:11;;;;;;;;;;;15.20;99.90;;;;;;5024900;28;19926;-91
2023/03/17 15:44:37;;;;;;;;;;;15.20;99.90;;;;;;5013413;28;20012;-94
2023/03/17 15:47:03;;;;;;;;;;;15.20;99.90;;;;;;5009629;28;20088;-95
2023/03/17 15:49:29;;;;;;;;;;;15.10;99.90;;;;;;5005804;28;19925;-94
2023/03/17 15:51:55;;;;;;;;;;;15.10;99.90;;;;;;5007630;28;19926;-94
2023/03/17 15:54:21;;;;;;;;;;;15.10;99.90;;;;;;5004833;28;19944;-93
2023/03/17 15:56:46;;;;;;;;;;;15.00;99.90;;;;;;5009037;28;19925;-95
2023/03/17 15:59:12;;;;;;;;;;;15.20;99.90;;;;;;5007296;28;19972;-93
2023/03/17 16:01:38;;;;;;;;;;;15.00;99.90;;;;;;5011712;28;19929;-95
2023/03/17 16:04:04;;;;;;;;;;;14.90;99.90;;;;;;5025082;28;20338;-93
2023/03/17 16:06:30;;;;;;;;;;;15.00;99.90;;;;;;5017430;28;19925;-92
2023/03/17 16:08:55;;;;;;;;;;;14.90;99.90;;;;;;5016532;28;19948;-94
2023/03/17 16:11:26;;;;;;;;;;;14.90;99.90;;;;;;5007599;28;19925;-93
2023/03/17 16:13:53;;;;;;;;;;;14.90;99.90;;;;;;5017968;28;19944;-93
2023/03/17 16:16:25;;;;;;;;;;;14.90;99.90;;;;;;5047348;28;20013;-93
2023/03/17 16:18:51;;;;;;;;;;;14.80;99.90;;;;;;5022842;28;19939;-91
2023/03/17 16:21:18;;;;;;;;;;;14.80;99.90;;;;;;5031904;28;19925;-93
2023/03/17 16:23:43;;;;;;;;;;;14.70;99.90;;;;;;5031848;28;19932;-92
2023/03/17 16:26:09;;;;;;;;;;;14.60;99.90;;;;;;5014157;28;19925;-93
2023/03/17 16:28:35;;;;;;;;;;;14.60;99.90;;;;;;5005736;28;19925;-94
2023/03/17 16:31:02;;;;;;;;;;;14.60;99.90;;;;;;5008560;28;19925;-95
2023/03/17 16:33:31;;;;;;;;;;;14.50;99.90;;;;;;5024376;28;19936;-91
2023/03/17 16:35:57;;;;;;;;;;;14.70;99.90;;;;;;5037196;28;19929;-95
2023/03/17 16:38:30;;;;;;;;;;;14.40;99.90;;;;;;5017095;28;20008;-96
2023/03/17 16:40:59;;;;;;;;;;;14.40;99.90;;;;;;5029608;28;19948;-94
2023/03/17 16:43:25;;;;;;;;;;;14.30;99.90;;;;;;5029450;28;19925;-92
2023/03/17 16:45:52;;;;;;;;;;;14.40;99.90;;;;;;5029332;28;19929;-93
2023/03/17 16:48:18;;;;;;;;;;;14.30;99.90;;;;;;5048517;28;20052;-93
2023/03/17 16:50:43;;;;;;;;;;;14.30;99.90;;;;;;5006142;28;20035;-95
2023/03/17 16:53:09;;;;;;;;;;;14.30;99.90;;;;;;5036817;28;19925;-94
2023/03/17 16:55:35;;;;;;;;;;;14.20;99.90;;;;;;5018300;28;19932;-95
2023/03/17 16:58:21;;;;;;;;;;;14.20;99.90;;;;;;5039213;28;19932;-90
2023/03/17 17:00:47;;;;;;;;;;;14.20;99.90;;;;;;5033473;28;19925;-93
2023/03/17 17:03:13;;;;;;;;;;;14.30;99.90;;;;;;5045076;28;19972;-93
2023/03/17 17:05:40;;;;;;;;;;;14.10;99.90;;;;;;5052497;28;19924;-92
2023/03/17 17:08:05;;;;;;;;;;;14.10;99.90;;;;;;5024454;28;20025;-91
2023/03/17 17:10:32;;;;;;;;;;;14.10;99.90;;;;;;5019682;28;19988;-91
2023/03/17 17:12:58;;;;;;;;;;;14.00;99.90;;;;;;5043489;28;19982;-90
2023/03/17 17:15:24;;;;;;;;;;;14.00;99.90;;;;;;5038892;28;20304;-90
2023/03/17 17:17:53;;;;;;;;;;;14.00;99.90;;;;;;5028345;28;19935;-94